Time;durP1;ratioP1;P1;durP2;ratioP2;P2;SDS_P1;SDS_P2;PMS_P1;PMS_P2;Temp;Humidity;BMP_temperature;BMP_pressure;BME280_temperature;BME280_humidity;BME280_pressure;Samples;Min_cycle;Max_cycle;Signal;HPM_P1;HPM_P2
2024/03/11 00:00:05;;;;;;;29.67;21.30;;;;;;;;;;696176;28;1505;-67
2024/03/11 00:00:33;;;;;;;30.27;21.67;;;;;;;;;;695233;28;4391;-67
2024/03/11 00:00:53;;;;;;;30.30;21.25;;;;;;;;;;698199;28;825;-68
2024/03/11 00:01:14;;;;;;;31.37;21.43;;;;;;;;;;692395;28;2298;-67
2024/03/11 00:01:35;;;;;;;30.83;21.63;;;;;;;;;;693031;28;1290;-67
2024/03/11 00:01:57;;;;;;;31.20;21.48;;;;;;;;;;692451;28;897;-67
2024/03/11 00:02:20;;;;;;;30.83;21.08;;;;;;;;;;692301;28;984;-68
2024/03/11 00:02:42;;;;;;;30.05;20.95;;;;;;;;;;692207;28;1148;-68
2024/03/11 00:03:02;;;;;;;31.20;22.13;;;;;;;;;;692409;28;1846;-68
2024/03/11 00:03:22;;;;;;;32.50;21.73;;;;;;;;;;695454;28;4406;-68
2024/03/11 00:03:42;;;;;;;31.27;21.52;;;;;;;;;;696655;28;880;-68
2024/03/11 00:04:03;;;;;;;30.93;21.20;;;;;;;;;;695821;28;1914;-68
2024/03/11 00:04:24;;;;;;;30.93;21.17;;;;;;;;;;697066;28;1320;-67
2024/03/11 00:04:44;;;;;;;31.52;22.10;;;;;;;;;;696255;28;857;-68
2024/03/11 00:05:06;;;;;;;30.95;22.48;;;;;;;;;;694246;28;1452;-68
2024/03/11 00:05:27;;;;;;;30.02;21.55;;;;;;;;;;697345;28;916;-68
2024/03/11 00:05:47;;;;;;;30.95;21.90;;;;;;;;;;696209;28;852;-68
2024/03/11 00:06:08;;;;;;;31.17;21.83;;;;;;;;;;695003;28;2287;-68
2024/03/11 00:06:29;;;;;;;30.73;21.75;;;;;;;;;;696464;28;4388;-68
2024/03/11 00:06:50;;;;;;;29.67;21.40;;;;;;;;;;695544;28;1200;-68
2024/03/11 00:07:13;;;;;;;30.35;22.15;;;;;;;;;;694213;28;2464;-68
2024/03/11 00:07:37;;;;;;;29.98;21.45;;;;;;;;;;695443;28;1209;-68
2024/03/11 00:07:58;;;;;;;31.15;21.92;;;;;;;;;;695537;28;920;-69
2024/03/11 00:08:21;;;;;;;31.17;21.98;;;;;;;;;;695900;28;1027;-68
2024/03/11 00:08:44;;;;;;;29.77;21.85;;;;;;;;;;696370;28;991;-68
2024/03/11 00:09:15;;;;;;;29.58;21.33;;;;;;;;;;697383;28;1665;-68
2024/03/11 00:09:44;;;;;;;32.05;21.90;;;;;;;;;;695414;28;4836;-68
2024/03/11 00:10:11;;;;;;;31.27;21.60;;;;;;;;;;696010;28;1718;-68
2024/03/11 00:10:33;;;;;;;31.75;22.00;;;;;;;;;;698032;28;1207;-68
2024/03/11 00:11:00;;;;;;;32.15;21.50;;;;;;;;;;696299;28;1335;-69
2024/03/11 00:11:24;;;;;;;32.10;21.48;;;;;;;;;;696943;28;905;-68
2024/03/11 00:11:56;;;;;;;30.98;21.23;;;;;;;;;;697842;28;857;-68
2024/03/11 00:12:22;;;;;;;30.33;21.85;;;;;;;;;;695835;28;4299;-68
2024/03/11 00:12:49;;;;;;;30.02;21.50;;;;;;;;;;692477;28;841;-68
2024/03/11 00:13:10;;;;;;;29.60;21.33;;;;;;;;;;691370;28;1558;-67
2024/03/11 00:13:33;;;;;;;29.90;21.77;;;;;;;;;;694614;28;1153;-68
2024/03/11 00:13:54;;;;;;;31.20;21.88;;;;;;;;;;693105;28;869;-68
2024/03/11 00:14:21;;;;;;;32.03;21.65;;;;;;;;;;693080;28;2226;-68
2024/03/11 00:14:46;;;;;;;30.70;21.17;;;;;;;;;;697114;28;931;-68
2024/03/11 00:15:07;;;;;;;29.20;21.08;;;;;;;;;;695883;28;1783;-68
2024/03/11 00:15:27;;;;;;;30.07;20.87;;;;;;;;;;696208;28;4344;-68
2024/03/11 00:15:50;;;;;;;29.98;21.10;;;;;;;;;;696636;28;1341;-69
2024/03/11 00:16:12;;;;;;;31.67;21.45;;;;;;;;;;696086;28;1872;-68
2024/03/11 00:16:32;;;;;;;31.98;22.35;;;;;;;;;;696106;28;821;-68
2024/03/11 00:16:53;;;;;;;32.03;22.80;;;;;;;;;;696496;28;1021;-69
2024/03/11 00:17:14;;;;;;;30.95;22.00;;;;;;;;;;695436;28;1976;-68
2024/03/11 00:17:34;;;;;;;32.33;21.70;;;;;;;;;;697378;28;1019;-68
2024/03/11 00:17:56;;;;;;;32.60;22.30;;;;;;;;;;696849;28;853;-68
2024/03/11 00:18:19;;;;;;;31.40;21.98;;;;;;;;;;694962;28;4545;-68
2024/03/11 00:18:41;;;;;;;30.83;21.58;;;;;;;;;;695971;28;983;-68
2024/03/11 00:19:01;;;;;;;31.90;22.20;;;;;;;;;;694968;28;987;-68
2024/03/11 00:19:22;;;;;;;31.30;22.03;;;;;;;;;;696310;28;821;-68
2024/03/11 00:19:42;;;;;;;33.30;22.20;;;;;;;;;;695220;28;837;-68
2024/03/11 00:20:04;;;;;;;33.83;22.43;;;;;;;;;;696732;28;1762;-68
2024/03/11 00:20:25;;;;;;;34.35;22.58;;;;;;;;;;696395;28;1000;-68
2024/03/11 00:20:46;;;;;;;32.60;22.45;;;;;;;;;;695858;28;1350;-69
2024/03/11 00:21:06;;;;;;;32.08;22.00;;;;;;;;;;695251;28;2677;-68
2024/03/11 00:21:26;;;;;;;32.30;21.80;;;;;;;;;;695321;28;4529;-69
2024/03/11 00:21:47;;;;;;;31.10;21.73;;;;;;;;;;695972;28;834;-69
2024/03/11 00:22:07;;;;;;;31.20;21.52;;;;;;;;;;694253;28;1717;-69
2024/03/11 00:22:27;;;;;;;34.40;22.10;;;;;;;;;;695200;28;1287;-69
2024/03/11 00:22:48;;;;;;;31.83;21.63;;;;;;;;;;695370;28;987;-69
2024/03/11 00:23:08;;;;;;;32.33;21.77;;;;;;;;;;695200;28;2237;-71
2024/03/11 00:23:28;;;;;;;32.00;21.67;;;;;;;;;;695080;28;3767;-71
2024/03/11 00:23:49;;;;;;;33.40;22.77;;;;;;;;;;696040;28;1227;-70
2024/03/11 00:24:09;;;;;;;32.33;21.93;;;;;;;;;;694626;28;1823;-70
2024/03/11 00:24:33;;;;;;;32.80;21.77;;;;;;;;;;696478;28;4523;-70
2024/03/11 00:24:54;;;;;;;32.25;22.10;;;;;;;;;;697566;28;923;-69
2024/03/11 00:25:14;;;;;;;32.50;22.83;;;;;;;;;;694981;28;1038;-70
2024/03/11 00:25:35;;;;;;;31.90;22.58;;;;;;;;;;696637;28;861;-70
2024/03/11 00:25:55;;;;;;;31.92;22.55;;;;;;;;;;696777;28;1046;-69
2024/03/11 00:26:16;;;;;;;32.73;22.53;;;;;;;;;;695206;28;2233;-70
2024/03/11 00:26:36;;;;;;;34.60;22.90;;;;;;;;;;697916;28;746;-71
2024/03/11 00:26:56;;;;;;;31.45;22.25;;;;;;;;;;697260;28;837;-70
2024/03/11 00:27:17;;;;;;;32.27;22.17;;;;;;;;;;692351;28;4301;-71
2024/03/11 00:27:37;;;;;;;33.00;22.73;;;;;;;;;;696100;28;1235;-70
2024/03/11 00:27:59;;;;;;;33.23;22.63;;;;;;;;;;696944;28;860;-71
2024/03/11 00:28:19;;;;;;;31.08;22.38;;;;;;;;;;697350;28;992;-71
2024/03/11 00:28:40;;;;;;;32.77;22.87;;;;;;;;;;696943;28;881;-71
2024/03/11 00:29:04;;;;;;;33.67;22.73;;;;;;;;;;695651;28;1054;-70
2024/03/11 00:29:24;;;;;;;34.42;23.38;;;;;;;;;;697249;28;1228;-72
2024/03/11 00:29:44;;;;;;;32.03;22.57;;;;;;;;;;697685;28;952;-72
2024/03/11 00:30:08;;;;;;;31.55;22.10;;;;;;;;;;695100;28;1661;-70
2024/03/11 00:30:28;;;;;;;32.97;22.98;;;;;;;;;;695683;28;4488;-70
2024/03/11 00:30:49;;;;;;;32.53;22.57;;;;;;;;;;699745;28;928;-70
2024/03/11 00:31:11;;;;;;;33.70;22.80;;;;;;;;;;699649;28;1870;-70
2024/03/11 00:31:32;;;;;;;32.60;22.33;;;;;;;;;;699622;28;1717;-70
2024/03/11 00:31:52;;;;;;;32.70;22.23;;;;;;;;;;700415;28;1010;-71
2024/03/11 00:32:14;;;;;;;35.30;23.02;;;;;;;;;;697679;28;2151;-70
2024/03/11 00:32:35;;;;;;;34.75;23.50;;;;;;;;;;699143;28;915;-71
2024/03/11 00:32:58;;;;;;;32.95;22.40;;;;;;;;;;699710;28;1352;-71
2024/03/11 00:33:18;;;;;;;33.17;22.40;;;;;;;;;;696316;28;5185;-71
2024/03/11 00:33:38;;;;;;;32.47;22.30;;;;;;;;;;696346;28;892;-68
2024/03/11 00:33:58;;;;;;;32.73;22.67;;;;;;;;;;696725;28;845;-71
2024/03/11 00:34:19;;;;;;;34.40;23.13;;;;;;;;;;698132;28;2075;-69
2024/03/11 00:34:41;;;;;;;32.40;22.83;;;;;;;;;;696906;28;1188;-69
2024/03/11 00:35:02;;;;;;;33.42;22.83;;;;;;;;;;695617;28;1592;-70
2024/03/11 00:35:24;;;;;;;31.92;21.98;;;;;;;;;;696858;28;1043;-69
2024/03/11 00:35:45;;;;;;;31.02;21.60;;;;;;;;;;698994;28;968;-70
2024/03/11 00:36:05;;;;;;;31.77;21.48;;;;;;;;;;695464;28;2188;-69
2024/03/11 00:36:25;;;;;;;31.67;21.70;;;;;;;;;;696457;28;4286;-69
2024/03/11 00:36:48;;;;;;;33.63;22.30;;;;;;;;;;697012;28;849;-69
2024/03/11 00:37:12;;;;;;;32.55;21.77;;;;;;;;;;696228;28;2030;-69
2024/03/11 00:37:32;;;;;;;34.05;22.98;;;;;;;;;;694464;28;932;-69
2024/03/11 00:37:52;;;;;;;34.30;22.90;;;;;;;;;;696004;28;951;-69
2024/03/11 00:38:13;;;;;;;34.33;23.27;;;;;;;;;;695612;28;1155;-70
2024/03/11 00:38:33;;;;;;;33.70;23.50;;;;;;;;;;697625;28;1993;-69
2024/03/11 00:38:53;;;;;;;35.37;22.90;;;;;;;;;;697719;28;1164;-69
2024/03/11 00:39:15;;;;;;;33.90;22.63;;;;;;;;;;696944;28;1607;-69
2024/03/11 00:39:35;;;;;;;35.95;23.25;;;;;;;;;;695555;28;4633;-69
2024/03/11 00:39:56;;;;;;;33.97;22.87;;;;;;;;;;696884;28;873;-69
2024/03/11 00:40:16;;;;;;;31.90;22.07;;;;;;;;;;696854;28;1549;-68
2024/03/11 00:40:37;;;;;;;31.80;22.75;;;;;;;;;;696122;28;979;-69
2024/03/11 00:40:57;;;;;;;31.90;23.07;;;;;;;;;;694595;28;912;-68
2024/03/11 00:41:17;;;;;;;32.60;22.58;;;;;;;;;;693729;28;1955;-67
2024/03/11 00:41:37;;;;;;;32.87;22.77;;;;;;;;;;694292;28;925;-68
2024/03/11 00:41:58;;;;;;;33.90;22.90;;;;;;;;;;697457;28;917;-68
2024/03/11 00:42:18;;;;;;;34.63;23.48;;;;;;;;;;696314;28;4536;-67
2024/03/11 00:42:39;;;;;;;34.97;23.57;;;;;;;;;;697072;28;857;-67
2024/03/11 00:42:59;;;;;;;34.47;23.92;;;;;;;;;;697382;28;978;-67
2024/03/11 00:43:19;;;;;;;34.43;23.33;;;;;;;;;;696124;28;1684;-67
2024/03/11 00:43:42;;;;;;;34.17;22.93;;;;;;;;;;696629;28;888;-67
2024/03/11 00:44:02;;;;;;;31.92;22.15;;;;;;;;;;696104;28;1780;-67
2024/03/11 00:44:23;;;;;;;33.22;22.60;;;;;;;;;;697114;28;983;-67
2024/03/11 00:44:43;;;;;;;32.87;22.60;;;;;;;;;;696731;28;1356;-67
2024/03/11 00:45:03;;;;;;;33.43;22.77;;;;;;;;;;694781;28;1904;-67
2024/03/11 00:45:24;;;;;;;32.75;22.58;;;;;;;;;;696763;28;4338;-66
2024/03/11 00:45:44;;;;;;;31.90;22.43;;;;;;;;;;697221;28;877;-66
2024/03/11 00:46:04;;;;;;;31.73;22.33;;;;;;;;;;696463;28;1958;-66
2024/03/11 00:46:25;;;;;;;32.83;21.77;;;;;;;;;;698011;28;1242;-67
2024/03/11 00:46:46;;;;;;;32.03;22.30;;;;;;;;;;697822;28;796;-66
2024/03/11 00:47:06;;;;;;;31.73;21.92;;;;;;;;;;696312;28;941;-67
2024/03/11 00:47:26;;;;;;;32.13;22.27;;;;;;;;;;696707;28;814;-66
2024/03/11 00:47:47;;;;;;;31.27;22.27;;;;;;;;;;697222;28;885;-66
2024/03/11 00:48:11;;;;;;;32.90;22.63;;;;;;;;;;695801;28;1854;-67
2024/03/11 00:48:31;;;;;;;32.88;22.98;;;;;;;;;;695677;28;4490;-66
2024/03/11 00:48:52;;;;;;;34.23;22.87;;;;;;;;;;697840;28;869;-66
2024/03/11 00:49:12;;;;;;;34.80;23.67;;;;;;;;;;696004;28;2213;-66
2024/03/11 00:49:32;;;;;;;34.70;24.03;;;;;;;;;;698381;28;920;-66
2024/03/11 00:49:53;;;;;;;33.43;22.43;;;;;;;;;;698258;28;1042;-66
2024/03/11 00:50:13;;;;;;;31.00;21.38;;;;;;;;;;697540;28;1143;-66
2024/03/11 00:50:34;;;;;;;31.77;22.30;;;;;;;;;;698667;28;798;-66
2024/03/11 00:50:55;;;;;;;31.85;22.08;;;;;;;;;;698597;28;932;-66
2024/03/11 00:51:15;;;;;;;34.45;24.17;;;;;;;;;;696112;28;4365;-65
2024/03/11 00:51:36;;;;;;;33.92;22.98;;;;;;;;;;697749;28;1205;-66
2024/03/11 00:51:56;;;;;;;33.27;22.47;;;;;;;;;;696165;28;956;-66
2024/03/11 00:52:16;;;;;;;33.83;22.93;;;;;;;;;;698155;28;1576;-66
2024/03/11 00:52:37;;;;;;;32.17;22.10;;;;;;;;;;697667;28;853;-66
2024/03/11 00:52:57;;;;;;;31.83;22.10;;;;;;;;;;696767;28;841;-66
2024/03/11 00:53:18;;;;;;;33.00;22.48;;;;;;;;;;695869;28;1761;-65
2024/03/11 00:53:38;;;;;;;32.63;22.57;;;;;;;;;;696225;28;940;-65
2024/03/11 00:53:59;;;;;;;31.50;22.57;;;;;;;;;;697402;28;858;-65
2024/03/11 00:54:19;;;;;;;32.92;22.90;;;;;;;;;;696373;28;4450;-65
2024/03/11 00:54:40;;;;;;;32.95;21.75;;;;;;;;;;696910;28;936;-65
2024/03/11 00:55:02;;;;;;;32.33;21.63;;;;;;;;;;695365;28;1217;-65
2024/03/11 00:55:22;;;;;;;34.70;22.48;;;;;;;;;;694599;28;1039;-65
2024/03/11 00:55:43;;;;;;;34.57;22.73;;;;;;;;;;698318;28;905;-65
2024/03/11 00:56:06;;;;;;;33.00;22.95;;;;;;;;;;694835;28;2237;-65
2024/03/11 00:56:27;;;;;;;32.22;21.98;;;;;;;;;;695464;28;1059;-65
2024/03/11 00:56:47;;;;;;;33.17;23.02;;;;;;;;;;693606;28;1180;-65
2024/03/11 00:57:07;;;;;;;32.83;23.17;;;;;;;;;;694213;28;2705;-65
2024/03/11 00:57:28;;;;;;;32.83;22.20;;;;;;;;;;694814;28;4333;-64
2024/03/11 00:57:48;;;;;;;32.70;22.75;;;;;;;;;;695319;28;809;-64
2024/03/11 00:58:09;;;;;;;32.67;22.40;;;;;;;;;;697130;28;1781;-64
2024/03/11 00:58:29;;;;;;;32.67;22.63;;;;;;;;;;698409;28;1910;-64
2024/03/11 00:58:49;;;;;;;32.27;21.87;;;;;;;;;;697822;28;748;-64
2024/03/11 00:59:10;;;;;;;33.50;22.58;;;;;;;;;;695751;28;1869;-64
2024/03/11 00:59:30;;;;;;;33.03;22.20;;;;;;;;;;697796;28;888;-64
2024/03/11 00:59:50;;;;;;;34.63;22.70;;;;;;;;;;697140;28;869;-64
2024/03/11 01:00:11;;;;;;;33.45;22.77;;;;;;;;;;692747;28;1835;-64
2024/03/11 01:00:32;;;;;;;33.03;23.03;;;;;;;;;;694592;28;4792;-64
2024/03/11 01:00:52;;;;;;;33.57;22.83;;;;;;;;;;695568;28;957;-64
2024/03/11 01:01:13;;;;;;;33.53;22.80;;;;;;;;;;693199;28;1739;-63
2024/03/11 01:01:33;;;;;;;33.40;23.03;;;;;;;;;;692824;28;1081;-64
2024/03/11 01:01:53;;;;;;;33.90;23.25;;;;;;;;;;695507;28;798;-64
2024/03/11 01:02:14;;;;;;;33.90;23.30;;;;;;;;;;696398;28;1651;-64
2024/03/11 01:02:34;;;;;;;34.25;23.40;;;;;;;;;;697387;28;901;-64
2024/03/11 01:02:56;;;;;;;32.53;22.40;;;;;;;;;;698007;28;845;-64
2024/03/11 01:03:17;;;;;;;34.15;23.65;;;;;;;;;;694934;28;4377;-64
2024/03/11 01:03:37;;;;;;;33.75;23.13;;;;;;;;;;697159;28;873;-64
2024/03/11 01:03:58;;;;;;;34.23;22.47;;;;;;;;;;696208;28;806;-64
2024/03/11 01:04:21;;;;;;;33.83;23.05;;;;;;;;;;696539;28;1681;-64
2024/03/11 01:04:42;;;;;;;34.83;23.00;;;;;;;;;;698897;28;1002;-64
2024/03/11 01:05:02;;;;;;;35.05;22.45;;;;;;;;;;700309;28;1264;-64
2024/03/11 01:05:22;;;;;;;34.27;22.73;;;;;;;;;;699854;28;1750;-64
2024/03/11 01:05:43;;;;;;;34.08;22.95;;;;;;;;;;699882;28;923;-64
2024/03/11 01:06:04;;;;;;;33.53;22.30;;;;;;;;;;697869;28;2185;-64
2024/03/11 01:06:25;;;;;;;33.47;22.52;;;;;;;;;;699928;28;4638;-64
2024/03/11 01:06:45;;;;;;;33.63;23.25;;;;;;;;;;697345;28;978;-64
2024/03/11 01:07:05;;;;;;;34.63;23.37;;;;;;;;;;696708;28;1803;-64
2024/03/11 01:07:26;;;;;;;33.30;22.60;;;;;;;;;;698081;28;935;-64
2024/03/11 01:07:46;;;;;;;33.57;23.57;;;;;;;;;;696549;28;971;-64
2024/03/11 01:08:06;;;;;;;35.47;23.73;;;;;;;;;;696276;28;2008;-64
2024/03/11 01:08:29;;;;;;;32.90;22.70;;;;;;;;;;696944;28;1052;-64
2024/03/11 01:08:49;;;;;;;33.60;22.38;;;;;;;;;;697131;28;971;-64
2024/03/11 01:09:11;;;;;;;33.10;22.03;;;;;;;;;;695510;28;2401;-64
2024/03/11 01:09:31;;;;;;;32.53;21.77;;;;;;;;;;698887;28;4321;-64
2024/03/11 01:09:52;;;;;;;33.20;22.63;;;;;;;;;;699393;28;962;-65
2024/03/11 01:10:13;;;;;;;34.67;23.80;;;;;;;;;;697288;28;1880;-65
2024/03/11 01:10:34;;;;;;;34.03;23.30;;;;;;;;;;696660;28;1393;-65
2024/03/11 01:10:55;;;;;;;32.45;22.80;;;;;;;;;;695377;28;972;-65
2024/03/11 01:11:15;;;;;;;34.47;23.25;;;;;;;;;;693241;28;1839;-65
2024/03/11 01:11:35;;;;;;;31.13;22.63;;;;;;;;;;694667;28;1310;-65
2024/03/11 01:11:55;;;;;;;33.33;22.80;;;;;;;;;;693822;28;813;-65
2024/03/11 01:12:16;;;;;;;32.85;22.98;;;;;;;;;;693563;28;4554;-65
2024/03/11 01:12:36;;;;;;;31.50;22.57;;;;;;;;;;698324;28;918;-65
2024/03/11 01:12:56;;;;;;;31.53;22.40;;;;;;;;;;698433;28;781;-65
2024/03/11 01:13:18;;;;;;;30.98;21.70;;;;;;;;;;696043;28;1893;-65
2024/03/11 01:13:38;;;;;;;31.92;22.00;;;;;;;;;;697228;28;998;-65
2024/03/11 01:13:59;;;;;;;33.70;22.27;;;;;;;;;;696863;28;1268;-65
2024/03/11 01:14:19;;;;;;;33.70;22.77;;;;;;;;;;695478;28;1494;-65
2024/03/11 01:14:39;;;;;;;34.00;23.43;;;;;;;;;;697955;28;901;-65
2024/03/11 01:15:00;;;;;;;32.60;23.17;;;;;;;;;;696976;28;927;-64
2024/03/11 01:15:20;;;;;;;32.37;23.10;;;;;;;;;;694509;28;4462;-65
2024/03/11 01:15:41;;;;;;;32.45;21.90;;;;;;;;;;697287;28;1417;-64
2024/03/11 01:16:01;;;;;;;33.23;22.30;;;;;;;;;;696528;28;939;-65
2024/03/11 01:16:21;;;;;;;34.53;22.55;;;;;;;;;;694937;28;1900;-64
2024/03/11 01:16:42;;;;;;;34.73;23.07;;;;;;;;;;697887;28;915;-65
2024/03/11 01:17:02;;;;;;;33.10;22.88;;;;;;;;;;697225;28;1000;-65
2024/03/11 01:17:23;;;;;;;32.43;22.67;;;;;;;;;;694604;28;2090;-64
2024/03/11 01:17:44;;;;;;;33.58;23.20;;;;;;;;;;697077;28;912;-64
2024/03/11 01:18:05;;;;;;;34.83;23.25;;;;;;;;;;695031;28;2162;-64
2024/03/11 01:18:25;;;;;;;34.13;22.65;;;;;;;;;;696174;28;4322;-65
2024/03/11 01:18:45;;;;;;;32.33;22.60;;;;;;;;;;697413;28;896;-64
2024/03/11 01:19:06;;;;;;;34.53;23.43;;;;;;;;;;695608;28;1759;-65
2024/03/11 01:19:27;;;;;;;35.65;24.00;;;;;;;;;;698093;28;1141;-64
2024/03/11 01:19:48;;;;;;;35.00;23.60;;;;;;;;;;695972;28;8813;-65
2024/03/11 01:20:13;;;;;;;34.20;23.23;;;;;;;;;;696607;28;1317;-64
2024/03/11 01:20:34;;;;;;;35.83;23.60;;;;;;;;;;698290;28;1099;-64
2024/03/11 01:20:54;;;;;;;35.58;24.02;;;;;;;;;;698736;28;840;-64
2024/03/11 01:21:20;;;;;;;36.27;24.20;;;;;;;;;;695869;28;4366;-64
2024/03/11 01:21:41;;;;;;;34.20;23.77;;;;;;;;;;693659;28;920;-65
2024/03/11 01:22:02;;;;;;;34.33;23.00;;;;;;;;;;697021;28;943;-65
2024/03/11 01:22:22;;;;;;;32.80;22.88;;;;;;;;;;697252;28;1429;-65
2024/03/11 01:22:43;;;;;;;34.43;23.33;;;;;;;;;;698287;28;1159;-64
2024/03/11 01:23:05;;;;;;;33.70;22.83;;;;;;;;;;698470;28;1169;-64
2024/03/11 01:23:26;;;;;;;34.28;23.25;;;;;;;;;;696094;28;858;-64
2024/03/11 01:23:47;;;;;;;35.85;24.10;;;;;;;;;;696975;28;912;-64
2024/03/11 01:24:10;;;;;;;36.00;24.70;;;;;;;;;;696263;28;1799;-65
2024/03/11 01:24:30;;;;;;;35.10;24.20;;;;;;;;;;696795;28;4490;-64
2024/03/11 01:24:51;;;;;;;34.97;23.13;;;;;;;;;;697728;28;1169;-64
2024/03/11 01:25:11;;;;;;;37.38;24.20;;;;;;;;;;695732;28;2563;-64
2024/03/11 01:25:32;;;;;;;34.93;23.33;;;;;;;;;;696308;28;882;-65
2024/03/11 01:25:52;;;;;;;34.45;23.02;;;;;;;;;;697886;28;880;-65
2024/03/11 01:26:13;;;;;;;36.30;24.27;;;;;;;;;;696049;28;1739;-65
2024/03/11 01:26:33;;;;;;;36.03;23.75;;;;;;;;;;697142;28;946;-65
2024/03/11 01:26:56;;;;;;;34.87;23.43;;;;;;;;;;696170;28;1135;-65
2024/03/11 01:27:17;;;;;;;34.13;23.75;;;;;;;;;;695175;28;4274;-65
2024/03/11 01:27:37;;;;;;;36.03;23.97;;;;;;;;;;697463;28;892;-64
2024/03/11 01:27:57;;;;;;;36.10;24.10;;;;;;;;;;698127;28;805;-65
2024/03/11 01:28:18;;;;;;;36.13;23.63;;;;;;;;;;695784;28;1240;-65
2024/03/11 01:28:38;;;;;;;38.43;24.60;;;;;;;;;;696444;28;939;-65
2024/03/11 01:28:58;;;;;;;36.72;24.17;;;;;;;;;;697093;28;1135;-65
2024/03/11 01:29:21;;;;;;;34.57;23.70;;;;;;;;;;697250;28;2100;-65
2024/03/11 01:29:41;;;;;;;35.17;23.73;;;;;;;;;;697361;28;874;-65
2024/03/11 01:30:01;;;;;;;37.08;24.00;;;;;;;;;;696907;28;1045;-65
2024/03/11 01:30:22;;;;;;;36.47;24.90;;;;;;;;;;697136;28;4502;-65
2024/03/11 01:30:42;;;;;;;35.43;23.43;;;;;;;;;;699286;28;790;-65
2024/03/11 01:31:04;;;;;;;38.40;24.50;;;;;;;;;;697634;28;943;-65
2024/03/11 01:31:24;;;;;;;38.25;24.70;;;;;;;;;;695286;28;1927;-65
2024/03/11 01:31:45;;;;;;;38.03;24.97;;;;;;;;;;696812;28;1052;-65
2024/03/11 01:32:06;;;;;;;37.42;25.15;;;;;;;;;;696267;28;1875;-65
2024/03/11 01:32:28;;;;;;;37.88;24.70;;;;;;;;;;696435;28;833;-65
2024/03/11 01:32:49;;;;;;;39.58;25.42;;;;;;;;;;696876;28;976;-65
2024/03/11 01:33:10;;;;;;;36.63;24.60;;;;;;;;;;695749;28;1740;-65
2024/03/11 01:33:31;;;;;;;35.70;23.52;;;;;;;;;;697059;28;4541;-65
2024/03/11 01:33:51;;;;;;;36.13;23.40;;;;;;;;;;694009;28;868;-65
2024/03/11 01:34:13;;;;;;;38.15;24.30;;;;;;;;;;693673;28;1766;-66
2024/03/11 01:34:33;;;;;;;37.78;25.02;;;;;;;;;;696285;28;882;-66
2024/03/11 01:34:55;;;;;;;37.92;25.17;;;;;;;;;;697741;28;849;-65
2024/03/11 01:35:15;;;;;;;35.25;23.92;;;;;;;;;;695213;28;1504;-66
2024/03/11 01:35:37;;;;;;;35.60;23.43;;;;;;;;;;697935;28;860;-66
2024/03/11 01:35:57;;;;;;;35.85;23.23;;;;;;;;;;697363;28;960;-66
2024/03/11 01:36:18;;;;;;;36.08;23.92;;;;;;;;;;695712;28;4363;-67
2024/03/11 01:36:39;;;;;;;35.30;23.90;;;;;;;;;;698552;28;912;-66
2024/03/11 01:37:00;;;;;;;37.23;24.03;;;;;;;;;;698026;28;1330;-66
2024/03/11 01:37:22;;;;;;;33.97;23.27;;;;;;;;;;694827;28;1765;-66
2024/03/11 01:37:42;;;;;;;33.60;23.25;;;;;;;;;;698175;28;833;-66
2024/03/11 01:38:02;;;;;;;35.37;23.50;;;;;;;;;;697971;28;936;-66
2024/03/11 01:38:23;;;;;;;36.27;23.50;;;;;;;;;;695004;28;1922;-66
2024/03/11 01:38:43;;;;;;;35.33;22.75;;;;;;;;;;696578;28;1428;-66
2024/03/11 01:39:08;;;;;;;34.47;23.37;;;;;;;;;;696429;28;1299;-66
2024/03/11 01:39:42;;;;;;;34.65;23.02;;;;;;;;;;696413;28;4471;-67
2024/03/11 01:40:03;;;;;;;33.78;23.58;;;;;;;;;;697712;28;1065;-66
2024/03/11 01:40:24;;;;;;;33.90;23.05;;;;;;;;;;695640;28;2042;-67
2024/03/11 01:40:45;;;;;;;34.75;23.02;;;;;;;;;;697914;28;896;-67
2024/03/11 01:41:07;;;;;;;35.47;23.67;;;;;;;;;;697058;28;1919;-66
2024/03/11 01:41:28;;;;;;;35.67;24.02;;;;;;;;;;697235;28;916;-67
2024/03/11 01:41:48;;;;;;;36.03;24.63;;;;;;;;;;696792;28;942;-67
2024/03/11 01:42:14;;;;;;;36.97;23.47;;;;;;;;;;697204;28;1342;-67
2024/03/11 01:42:34;;;;;;;35.90;23.52;;;;;;;;;;697755;28;4227;-67
2024/03/11 01:42:55;;;;;;;36.57;24.13;;;;;;;;;;698195;28;801;-67
2024/03/11 01:43:15;;;;;;;35.20;23.67;;;;;;;;;;695862;28;1708;-67
2024/03/11 01:43:35;;;;;;;36.85;24.35;;;;;;;;;;697532;28;1146;-67
2024/03/11 01:43:56;;;;;;;37.33;24.27;;;;;;;;;;698089;28;861;-67
2024/03/11 01:44:17;;;;;;;36.50;24.03;;;;;;;;;;695735;28;1821;-67
2024/03/11 01:44:38;;;;;;;37.40;25.20;;;;;;;;;;696411;28;869;-67
2024/03/11 01:44:58;;;;;;;37.70;24.88;;;;;;;;;;698288;28;971;-67
2024/03/11 01:45:19;;;;;;;36.23;24.10;;;;;;;;;;694048;28;4485;-67
2024/03/11 01:45:39;;;;;;;37.78;24.50;;;;;;;;;;697016;28;1315;-67
2024/03/11 01:45:59;;;;;;;39.20;25.23;;;;;;;;;;697036;28;774;-67
2024/03/11 01:46:20;;;;;;;37.55;24.50;;;;;;;;;;695683;28;1484;-67
2024/03/11 01:46:40;;;;;;;35.33;24.37;;;;;;;;;;692385;28;908;-67
2024/03/11 01:47:01;;;;;;;35.50;24.33;;;;;;;;;;691594;28;1277;-67
2024/03/11 01:47:23;;;;;;;35.10;22.98;;;;;;;;;;691368;28;1044;-67
2024/03/11 01:47:44;;;;;;;36.35;23.50;;;;;;;;;;692774;28;1012;-67
2024/03/11 01:48:04;;;;;;;37.43;23.97;;;;;;;;;;691035;28;987;-67
2024/03/11 01:48:26;;;;;;;35.53;23.70;;;;;;;;;;692101;28;4286;-67
2024/03/11 01:48:47;;;;;;;36.08;24.80;;;;;;;;;;693939;28;923;-67
2024/03/11 01:49:08;;;;;;;36.10;24.77;;;;;;;;;;693021;28;1871;-67
2024/03/11 01:49:30;;;;;;;35.75;24.25;;;;;;;;;;694192;28;953;-67
2024/03/11 01:49:53;;;;;;;37.95;24.15;;;;;;;;;;698123;28;1099;-67
2024/03/11 01:50:14;;;;;;;35.75;23.77;;;;;;;;;;693646;28;1048;-67
2024/03/11 01:50:34;;;;;;;36.10;24.30;;;;;;;;;;695645;28;935;-67
2024/03/11 01:50:55;;;;;;;36.17;24.33;;;;;;;;;;697802;28;910;-67
2024/03/11 01:51:17;;;;;;;38.50;24.67;;;;;;;;;;693836;28;4307;-67
2024/03/11 01:51:38;;;;;;;36.08;24.13;;;;;;;;;;695130;28;928;-67
2024/03/11 01:51:58;;;;;;;37.33;24.85;;;;;;;;;;695690;28;944;-67
2024/03/11 01:52:22;;;;;;;37.30;23.97;;;;;;;;;;695229;28;1699;-67
2024/03/11 01:52:45;;;;;;;36.47;24.17;;;;;;;;;;697292;28;747;-67
2024/03/11 01:53:05;;;;;;;36.22;24.35;;;;;;;;;;697127;28;955;-67
2024/03/11 01:53:28;;;;;;;36.77;24.73;;;;;;;;;;693407;28;1761;-67
2024/03/11 01:53:48;;;;;;;37.72;24.85;;;;;;;;;;695257;28;1094;-68
2024/03/11 01:54:10;;;;;;;37.22;24.77;;;;;;;;;;694250;28;2398;-68
2024/03/11 01:54:31;;;;;;;36.00;24.10;;;;;;;;;;695089;28;4312;-67
2024/03/11 01:54:51;;;;;;;34.42;23.00;;;;;;;;;;695702;28;888;-68
2024/03/11 01:55:12;;;;;;;35.72;23.67;;;;;;;;;;694330;28;2060;-68
2024/03/11 01:55:34;;;;;;;35.97;24.13;;;;;;;;;;698624;28;970;-68
2024/03/11 01:55:54;;;;;;;36.28;23.95;;;;;;;;;;691220;28;1376;-68
2024/03/11 01:56:15;;;;;;;37.60;23.63;;;;;;;;;;691268;28;1988;-68
2024/03/11 01:56:37;;;;;;;39.30;24.55;;;;;;;;;;694441;28;813;-68
2024/03/11 01:56:57;;;;;;;37.10;24.52;;;;;;;;;;690677;28;908;-68
2024/03/11 01:57:18;;;;;;;37.50;24.67;;;;;;;;;;688927;28;4305;-68
2024/03/11 01:57:39;;;;;;;36.97;24.27;;;;;;;;;;691376;28;849;-68
2024/03/11 01:58:00;;;;;;;37.35;24.85;;;;;;;;;;697064;28;1165;-68
2024/03/11 01:58:22;;;;;;;34.25;23.42;;;;;;;;;;692026;28;1823;-68
2024/03/11 01:58:46;;;;;;;35.15;24.17;;;;;;;;;;696423;28;888;-68
2024/03/11 01:59:07;;;;;;;37.25;24.83;;;;;;;;;;697964;28;1027;-68
2024/03/11 01:59:29;;;;;;;35.85;24.35;;;;;;;;;;696848;28;1419;-68
2024/03/11 01:59:51;;;;;;;37.45;24.77;;;;;;;;;;696410;28;837;-68
2024/03/11 02:00:11;;;;;;;36.45;23.98;;;;;;;;;;693224;28;1775;-68
2024/03/11 02:00:32;;;;;;;35.85;23.95;;;;;;;;;;693444;28;4250;-68
2024/03/11 02:00:52;;;;;;;36.20;23.70;;;;;;;;;;692493;28;1434;-69
2024/03/11 02:01:14;;;;;;;35.47;23.77;;;;;;;;;;690364;28;1872;-68
2024/03/11 02:01:34;;;;;;;35.75;23.45;;;;;;;;;;691232;28;1004;-69
2024/03/11 02:01:54;;;;;;;35.37;23.50;;;;;;;;;;692443;28;858;-68
2024/03/11 02:02:15;;;;;;;36.13;24.03;;;;;;;;;;695673;28;1906;-68
2024/03/11 02:02:36;;;;;;;36.33;23.90;;;;;;;;;;697249;28;1417;-68
2024/03/11 02:02:56;;;;;;;36.25;23.42;;;;;;;;;;696798;28;967;-68
2024/03/11 02:03:17;;;;;;;33.97;23.02;;;;;;;;;;695588;28;4427;-68
2024/03/11 02:03:37;;;;;;;35.20;23.37;;;;;;;;;;698093;28;928;-68
2024/03/11 02:03:58;;;;;;;33.70;23.45;;;;;;;;;;700206;28;1180;-68
2024/03/11 02:04:20;;;;;;;35.03;24.05;;;;;;;;;;697383;28;2114;-68
2024/03/11 02:04:44;;;;;;;34.17;23.58;;;;;;;;;;697234;28;865;-68
2024/03/11 02:05:09;;;;;;;36.50;24.30;;;;;;;;;;694251;28;909;-69
2024/03/11 02:05:29;;;;;;;37.22;24.25;;;;;;;;;;695346;28;857;-68
2024/03/11 02:05:49;;;;;;;36.87;24.70;;;;;;;;;;694047;28;975;-69
2024/03/11 02:06:11;;;;;;;37.42;24.17;;;;;;;;;;693557;28;1206;-70
2024/03/11 02:06:33;;;;;;;38.85;24.58;;;;;;;;;;693351;28;4587;-69
2024/03/11 02:06:54;;;;;;;35.50;23.80;;;;;;;;;;698556;28;927;-69
2024/03/11 02:07:15;;;;;;;36.80;24.58;;;;;;;;;;696197;28;1544;-69
2024/03/11 02:07:37;;;;;;;37.97;25.02;;;;;;;;;;698384;28;1172;-69